UUD weather

Ulan-Ude Airport (Mukhino)
Ulan Ude, Republic of Buryat, Russia

Public forecast

Using degrees Celsius for public forecast. Weather courtesy of forecast.io.

METAR (pilot weather report)

Retrieved 2019/07/23 00:30 UTC (0 seconds ago):

UIUU 230030Z 08006G11MPS 9999 -SHRA BKN037CB 19/14 Q1001 R08/190060 NOSIG RMK QFE706/0942

TAF (pilot weather forecast)

Forecast is more than 12 hours old.

Retrieved 2019/07/22 00:24 UTC (1 day ago):

TAF UIUU 222300Z 2300/2324 06008G13MPS 9999 -SHRA BKN011CB